Time;durP1;ratioP1;P1;durP2;ratioP2;P2;SDS_P1;SDS_P2;PMS_P1;PMS_P2;Temp;Humidity;BMP_temperature;BMP_pressure;BME280_temperature;BME280_humidity;BME280_pressure;Samples;Min_cycle;Max_cycle;Signal;HPM_P1;HPM_P2
2022/03/16 00:01:19;;;;;;;64.68;36.22;;;;;;;;;;4989511;28;20058;-71
2022/03/16 00:03:46;;;;;;;63.22;36.10;;;;;;;;;;4995486;28;20431;-70
2022/03/16 00:06:14;;;;;;;73.13;38.63;;;;;;;;;;5004169;28;20065;-70
2022/03/16 00:08:42;;;;;;;73.07;39.45;;;;;;;;;;4992232;28;20058;-70
2022/03/16 00:11:09;;;;;;;81.50;41.78;;;;;;;;;;4994091;28;20061;-70
2022/03/16 00:13:37;;;;;;;76.90;40.75;;;;;;;;;;4989628;28;20054;-70
2022/03/16 00:16:04;;;;;;;77.35;40.63;;;;;;;;;;4993676;28;20456;-70
2022/03/16 00:18:31;;;;;;;87.68;42.72;;;;;;;;;;4995831;28;20053;-70
2022/03/16 00:20:59;;;;;;;90.63;40.47;;;;;;;;;;5009398;28;20374;-70
2022/03/16 00:23:27;;;;;;;59.78;34.08;;;;;;;;;;4992314;28;20489;-70
2022/03/16 00:25:56;;;;;;;61.58;35.55;;;;;;;;;;4988568;28;20050;-70
2022/03/16 00:28:23;;;;;;;78.50;39.47;;;;;;;;;;5008928;28;20548;-70
2022/03/16 00:30:50;;;;;;;83.40;39.75;;;;;;;;;;4991750;28;20065;-70
2022/03/16 00:33:17;;;;;;;58.10;33.80;;;;;;;;;;4989767;28;20391;-70
2022/03/16 00:35:45;;;;;;;59.38;35.38;;;;;;;;;;4990531;28;20098;-70
2022/03/16 00:38:13;;;;;;;62.03;36.30;;;;;;;;;;4991508;28;20065;-70
2022/03/16 00:40:40;;;;;;;69.40;38.17;;;;;;;;;;5009557;28;20508;-70
2022/03/16 00:43:09;;;;;;;75.18;39.90;;;;;;;;;;4990787;28;20579;-70
2022/03/16 00:45:36;;;;;;;62.15;35.67;;;;;;;;;;4990431;28;20129;-70
2022/03/16 00:48:03;;;;;;;83.22;39.92;;;;;;;;;;4990569;28;20117;-70
2022/03/16 00:50:32;;;;;;;86.80;41.65;;;;;;;;;;4993469;28;20128;-70
2022/03/16 00:52:59;;;;;;;71.68;37.75;;;;;;;;;;5009712;28;20048;-70
2022/03/16 00:55:26;;;;;;;77.15;40.85;;;;;;;;;;4989434;28;20053;-70
2022/03/16 00:57:53;;;;;;;77.22;38.78;;;;;;;;;;4988290;28;20421;-71
2022/03/16 01:00:22;;;;;;;75.45;38.95;;;;;;;;;;4990405;28;20046;-71
2022/03/16 01:02:49;;;;;;;74.55;39.58;;;;;;;;;;4991217;28;20054;-70
2022/03/16 01:05:16;;;;;;;70.90;39.47;;;;;;;;;;4991475;28;20120;-70
2022/03/16 01:07:43;;;;;;;84.97;42.08;;;;;;;;;;5009006;28;20720;-70
2022/03/16 01:10:11;;;;;;;83.97;43.60;;;;;;;;;;4986682;28;20108;-70
2022/03/16 01:12:38;;;;;;;76.35;40.42;;;;;;;;;;4990294;28;20473;-70
2022/03/16 01:15:05;;;;;;;68.85;37.50;;;;;;;;;;5009588;28;20046;-70
2022/03/16 01:17:34;;;;;;;71.25;39.58;;;;;;;;;;4994274;28;20058;-70
2022/03/16 01:20:01;;;;;;;79.10;41.90;;;;;;;;;;4990521;28;20412;-70
2022/03/16 01:22:28;;;;;;;74.97;40.50;;;;;;;;;;4991027;28;20049;-70
2022/03/16 01:24:56;;;;;;;70.63;38.85;;;;;;;;;;4987895;28;20058;-70
2022/03/16 01:27:23;;;;;;;75.10;41.03;;;;;;;;;;4990018;28;20049;-70
2022/03/16 01:29:50;;;;;;;80.03;41.65;;;;;;;;;;4991737;28;20050;-70
2022/03/16 01:32:17;;;;;;;82.38;40.53;;;;;;;;;;4991857;28;20753;-70
2022/03/16 01:34:46;;;;;;;73.15;38.38;;;;;;;;;;5007640;28;20053;-70
2022/03/16 01:37:13;;;;;;;70.43;39.10;;;;;;;;;;4991266;28;20057;-70
2022/03/16 01:39:40;;;;;;;73.10;38.97;;;;;;;;;;4988731;28;20049;-70
2022/03/16 01:42:08;;;;;;;71.75;38.38;;;;;;;;;;4989806;28;20050;-70
2022/03/16 01:44:46;;;;;;;69.30;37.53;;;;;;;;;;4992170;28;20583;-70
2022/03/16 01:47:13;;;;;;;71.60;38.10;;;;;;;;;;4989979;28;20057;-70
2022/03/16 01:49:40;;;;;;;65.68;35.75;;;;;;;;;;4989244;28;20080;-70
2022/03/16 01:52:10;;;;;;;65.30;36.58;;;;;;;;;;4991457;28;20108;-70
2022/03/16 01:54:38;;;;;;;68.03;38.38;;;;;;;;;;4990972;28;20066;-70
2022/03/16 01:57:05;;;;;;;69.05;38.60;;;;;;;;;;4987811;28;20061;-70
2022/03/16 01:59:32;;;;;;;83.82;41.80;;;;;;;;;;4989475;28;20053;-70
2022/03/16 02:02:00;;;;;;;76.85;41.22;;;;;;;;;;5007013;28;20061;-70
2022/03/16 02:04:27;;;;;;;84.97;43.15;;;;;;;;;;4985343;28;20108;-70
2022/03/16 02:06:54;;;;;;;87.05;43.05;;;;;;;;;;4989443;28;20112;-70
2022/03/16 02:09:23;;;;;;;81.47;41.97;;;;;;;;;;4991936;28;20054;-70
2022/03/16 02:11:50;;;;;;;70.47;39.90;;;;;;;;;;4989218;28;20112;-70
2022/03/16 02:14:18;;;;;;;76.15;41.50;;;;;;;;;;4987244;28;20053;-70
2022/03/16 02:16:46;;;;;;;81.10;42.92;;;;;;;;;;4991093;28;20077;-70
2022/03/16 02:19:13;;;;;;;90.13;45.03;;;;;;;;;;4991437;28;20453;-70
2022/03/16 02:21:41;;;;;;;78.70;42.10;;;;;;;;;;4981256;28;20047;-70
2022/03/16 02:24:10;;;;;;;99.13;47.75;;;;;;;;;;4989389;28;20389;-70
2022/03/16 02:26:37;;;;;;;111.95;47.05;;;;;;;;;;4988728;28;20058;-70
2022/03/16 02:29:05;;;;;;;94.45;44.38;;;;;;;;;;4989034;28;20073;-70
2022/03/16 02:31:32;;;;;;;78.00;40.85;;;;;;;;;;4991970;28;20454;-70
2022/03/16 02:33:59;;;;;;;80.40;43.83;;;;;;;;;;4990029;28;20064;-70
2022/03/16 02:36:26;;;;;;;103.13;45.85;;;;;;;;;;4984667;28;20093;-70
2022/03/16 02:38:53;;;;;;;87.30;41.53;;;;;;;;;;4987541;28;20143;-70
2022/03/16 02:41:22;;;;;;;91.03;42.90;;;;;;;;;;4988019;28;20061;-70
2022/03/16 02:43:49;;;;;;;96.82;43.67;;;;;;;;;;4989458;28;20378;-70
2022/03/16 02:46:17;;;;;;;114.68;47.22;;;;;;;;;;4988015;28;20100;-70
2022/03/16 02:48:44;;;;;;;120.38;46.17;;;;;;;;;;5003893;28;20053;-70
2022/03/16 02:51:11;;;;;;;95.32;45.60;;;;;;;;;;4986886;28;20108;-70
2022/03/16 02:53:38;;;;;;;80.35;42.65;;;;;;;;;;4987232;28;20053;-70
2022/03/16 02:56:07;;;;;;;65.10;36.20;;;;;;;;;;4987864;28;20786;-70
2022/03/16 02:58:36;;;;;;;75.57;39.28;;;;;;;;;;4988056;28;20057;-70
2022/03/16 03:01:04;;;;;;;65.25;36.80;;;;;;;;;;4985630;28;20066;-70
2022/03/16 03:03:31;;;;;;;92.93;44.50;;;;;;;;;;4985783;28;20057;-70
2022/03/16 03:05:58;;;;;;;101.43;45.55;;;;;;;;;;4986706;28;20058;-70
2022/03/16 03:08:26;;;;;;;69.72;37.28;;;;;;;;;;4987394;28;20054;-70
2022/03/16 03:10:53;;;;;;;69.78;39.05;;;;;;;;;;4986060;28;20105;-70
2022/03/16 03:13:20;;;;;;;74.88;41.88;;;;;;;;;;4986364;28;20571;-70
2022/03/16 03:15:49;;;;;;;67.05;37.08;;;;;;;;;;4986768;28;20050;-70
2022/03/16 03:18:16;;;;;;;65.47;38.97;;;;;;;;;;4983496;28;20054;-70
2022/03/16 03:20:43;;;;;;;83.55;43.03;;;;;;;;;;4986843;28;20487;-70
2022/03/16 03:23:10;;;;;;;93.32;43.47;;;;;;;;;;4987317;28;20928;-70
2022/03/16 03:25:37;;;;;;;70.22;38.22;;;;;;;;;;4985236;28;20526;-70
2022/03/16 03:28:05;;;;;;;74.60;38.08;;;;;;;;;;4986893;28;21225;-70
2022/03/16 03:30:32;;;;;;;80.07;41.33;;;;;;;;;;5001009;28;20057;-70
2022/03/16 03:33:01;;;;;;;94.45;47.13;;;;;;;;;;4999262;28;20054;-70
2022/03/16 03:35:28;;;;;;;90.82;45.03;;;;;;;;;;4985565;28;20100;-70
2022/03/16 03:37:55;;;;;;;88.00;45.20;;;;;;;;;;4986428;28;20121;-70
2022/03/16 03:40:22;;;;;;;88.28;44.88;;;;;;;;;;5002717;28;20053;-70
2022/03/16 03:42:51;;;;;;;91.30;46.45;;;;;;;;;;4986754;28;20389;-70
2022/03/16 03:45:18;;;;;;;80.05;42.45;;;;;;;;;;4980629;28;20058;-70
2022/03/16 03:47:45;;;;;;;95.70;47.88;;;;;;;;;;4985296;28;20062;-70
2022/03/16 03:50:16;;;;;;;97.82;45.97;;;;;;;;;;4990200;28;20120;-70
2022/03/16 03:52:43;;;;;;;82.72;42.20;;;;;;;;;;4984796;28;20041;-70
2022/03/16 03:55:10;;;;;;;97.95;48.33;;;;;;;;;;5005825;28;20050;-70
2022/03/16 03:57:38;;;;;;;100.72;49.40;;;;;;;;;;4984266;28;20579;-70
2022/03/16 04:00:05;;;;;;;89.68;42.78;;;;;;;;;;4983100;28;20061;-70
2022/03/16 04:02:33;;;;;;;67.50;37.53;;;;;;;;;;4988144;28;20053;-70
2022/03/16 04:05:00;;;;;;;62.88;36.63;;;;;;;;;;4988228;28;20054;-70
2022/03/16 04:07:28;;;;;;;87.63;44.00;;;;;;;;;;4991225;28;20062;-70
2022/03/16 04:09:56;;;;;;;81.28;42.13;;;;;;;;;;4989657;28;20057;-70
2022/03/16 04:12:23;;;;;;;79.93;41.88;;;;;;;;;;4986921;28;20056;-70
2022/03/16 04:14:50;;;;;;;94.28;46.20;;;;;;;;;;4987242;28;20101;-70
2022/03/16 04:17:17;;;;;;;114.75;51.53;;;;;;;;;;4990006;28;20058;-70
2022/03/16 04:19:44;;;;;;;99.05;49.45;;;;;;;;;;4987742;28;20572;-70
2022/03/16 04:22:12;;;;;;;97.97;50.00;;;;;;;;;;5007863;28;20400;-70
2022/03/16 04:24:40;;;;;;;106.60;51.97;;;;;;;;;;4990119;28;20050;-70
2022/03/16 04:27:07;;;;;;;89.97;47.83;;;;;;;;;;4983661;28;20058;-70
2022/03/16 04:29:35;;;;;;;94.80;47.28;;;;;;;;;;4988116;28;20046;-70
2022/03/16 04:32:02;;;;;;;109.50;47.42;;;;;;;;;;4989567;28;20509;-70
2022/03/16 04:34:29;;;;;;;73.47;41.40;;;;;;;;;;4988930;28;20505;-70
2022/03/16 04:36:56;;;;;;;87.57;43.97;;;;;;;;;;4991681;28;20389;-70
2022/03/16 04:39:23;;;;;;;84.70;43.90;;;;;;;;;;4986636;28;20054;-70
2022/03/16 04:41:52;;;;;;;82.43;43.45;;;;;;;;;;4985393;28;20054;-70
2022/03/16 04:44:19;;;;;;;104.63;49.20;;;;;;;;;;4986716;28;20497;-70
2022/03/16 04:46:46;;;;;;;85.70;44.25;;;;;;;;;;4992320;28;20057;-70
2022/03/16 04:49:13;;;;;;;87.57;45.55;;;;;;;;;;4996352;28;20054;-70
2022/03/16 04:51:41;;;;;;;114.45;49.78;;;;;;;;;;4991942;28;20050;-70
2022/03/16 04:54:08;;;;;;;87.53;47.13;;;;;;;;;;4992024;28;20137;-70
2022/03/16 04:56:36;;;;;;;89.30;46.80;;;;;;;;;;5007518;28;20519;-70
2022/03/16 04:59:05;;;;;;;89.78;45.60;;;;;;;;;;4990831;28;20062;-70
2022/03/16 05:01:32;;;;;;;106.20;50.05;;;;;;;;;;4988117;28;20100;-70
2022/03/16 05:04:00;;;;;;;80.88;43.35;;;;;;;;;;4990488;28;20076;-70
2022/03/16 05:06:27;;;;;;;92.50;46.95;;;;;;;;;;5008574;28;20132;-70
2022/03/16 05:08:54;;;;;;;93.22;47.08;;;;;;;;;;4988853;28;20049;-70
2022/03/16 05:11:22;;;;;;;76.25;43.22;;;;;;;;;;4988965;28;20547;-70
2022/03/16 05:13:50;;;;;;;96.90;46.95;;;;;;;;;;4986853;28;20057;-70
2022/03/16 05:16:18;;;;;;;110.78;51.15;;;;;;;;;;4991637;28;20061;-70
2022/03/16 05:18:46;;;;;;;76.43;41.67;;;;;;;;;;4989607;28;20062;-70
2022/03/16 05:21:13;;;;;;;84.45;42.72;;;;;;;;;;4987437;28;20096;-70
2022/03/16 05:23:41;;;;;;;149.50;51.60;;;;;;;;;;4985277;28;20054;-70
2022/03/16 05:26:09;;;;;;;91.50;46.13;;;;;;;;;;4990908;28;20158;-70
2022/03/16 05:28:36;;;;;;;111.40;48.08;;;;;;;;;;5003020;28;20050;-70
2022/03/16 05:31:03;;;;;;;79.97;43.70;;;;;;;;;;4978623;28;20064;-70
2022/03/16 05:33:32;;;;;;;103.28;48.60;;;;;;;;;;5002720;28;20409;-70
2022/03/16 05:35:59;;;;;;;112.88;50.75;;;;;;;;;;4995984;28;20057;-70
2022/03/16 05:38:26;;;;;;;111.90;53.00;;;;;;;;;;4985159;28;20050;-70
2022/03/16 05:40:53;;;;;;;94.93;48.60;;;;;;;;;;4988170;28;20100;-70
2022/03/16 05:43:22;;;;;;;112.68;52.33;;;;;;;;;;4986021;28;20567;-70
2022/03/16 05:45:50;;;;;;;105.25;51.83;;;;;;;;;;4980513;28;20050;-70
2022/03/16 05:48:17;;;;;;;88.75;48.45;;;;;;;;;;4984782;28;20064;-70
2022/03/16 05:50:46;;;;;;;99.95;50.90;;;;;;;;;;4982420;28;20057;-70
2022/03/16 05:53:14;;;;;;;93.47;50.40;;;;;;;;;;5009213;28;20057;-70
2022/03/16 05:55:41;;;;;;;89.90;49.83;;;;;;;;;;4986182;28;20049;-70
2022/03/16 05:58:09;;;;;;;116.18;56.03;;;;;;;;;;4992159;28;20116;-70
2022/03/16 06:00:37;;;;;;;86.72;48.28;;;;;;;;;;4987136;28;20050;-70
2022/03/16 06:03:05;;;;;;;113.15;53.35;;;;;;;;;;4986590;28;20789;-70
2022/03/16 06:05:32;;;;;;;96.32;50.22;;;;;;;;;;4985275;28;20050;-70
2022/03/16 06:08:01;;;;;;;92.95;52.35;;;;;;;;;;4987827;28;20115;-70
2022/03/16 06:10:28;;;;;;;104.82;52.08;;;;;;;;;;4981297;28;20045;-70
2022/03/16 06:12:56;;;;;;;110.65;53.72;;;;;;;;;;4983579;28;20060;-70
2022/03/16 06:15:25;;;;;;;109.35;51.60;;;;;;;;;;4985826;28;20058;-70
2022/03/16 06:17:52;;;;;;;124.13;54.88;;;;;;;;;;4984355;28;20077;-70
2022/03/16 06:20:20;;;;;;;104.82;53.88;;;;;;;;;;4981991;28;20519;-70
2022/03/16 06:22:47;;;;;;;96.07;48.90;;;;;;;;;;4987259;28;20085;-70
2022/03/16 06:25:16;;;;;;;113.43;56.45;;;;;;;;;;4985723;28;20397;-70
2022/03/16 06:27:43;;;;;;;84.47;46.05;;;;;;;;;;4986410;28;20056;-70
2022/03/16 06:30:11;;;;;;;87.43;45.75;;;;;;;;;;4990997;28;20984;-70
2022/03/16 06:32:38;;;;;;;92.13;48.58;;;;;;;;;;4988137;28;20054;-70
2022/03/16 06:35:06;;;;;;;88.47;46.67;;;;;;;;;;4982094;28;20049;-70
2022/03/16 06:37:33;;;;;;;96.18;51.75;;;;;;;;;;4987021;28;20052;-70
2022/03/16 06:40:01;;;;;;;95.97;51.25;;;;;;;;;;4985789;28;20057;-70
2022/03/16 06:42:29;;;;;;;84.20;45.05;;;;;;;;;;4986978;28;20111;-70
2022/03/16 06:44:56;;;;;;;91.50;48.08;;;;;;;;;;4983425;28;20136;-70
2022/03/16 06:47:24;;;;;;;103.57;51.28;;;;;;;;;;5002452;28;20057;-70
2022/03/16 06:49:51;;;;;;;89.20;47.03;;;;;;;;;;4978739;28;20069;-70
2022/03/16 06:52:18;;;;;;;88.75;48.00;;;;;;;;;;4979820;28;20102;-70
2022/03/16 06:54:45;;;;;;;86.78;48.53;;;;;;;;;;4982824;28;20049;-70
2022/03/16 06:57:12;;;;;;;91.95;49.28;;;;;;;;;;4986308;28;20544;-70
2022/03/16 06:59:42;;;;;;;85.65;46.65;;;;;;;;;;4982213;28;20049;-70
2022/03/16 07:02:10;;;;;;;84.53;45.97;;;;;;;;;;4998075;28;20135;-70
2022/03/16 07:04:37;;;;;;;90.35;50.13;;;;;;;;;;4981542;28;20057;-70
2022/03/16 07:07:04;;;;;;;79.10;46.97;;;;;;;;;;4985426;28;20112;-70
2022/03/16 07:09:32;;;;;;;84.47;47.83;;;;;;;;;;4989188;28;20141;-70
2022/03/16 07:11:59;;;;;;;87.85;49.20;;;;;;;;;;4985264;28;20057;-70
2022/03/16 07:14:33;;;;;;;90.57;48.25;;;;;;;;;;4990296;28;20049;-70
2022/03/16 07:17:02;;;;;;;95.43;50.13;;;;;;;;;;4980855;28;20759;-70
2022/03/16 07:19:29;;;;;;;84.80;48.55;;;;;;;;;;4988938;28;20089;-70
2022/03/16 07:21:58;;;;;;;76.22;44.03;;;;;;;;;;4986410;28;20096;-70
2022/03/16 07:24:26;;;;;;;104.43;52.53;;;;;;;;;;4987586;28;20050;-70
2022/03/16 07:26:54;;;;;;;81.03;47.00;;;;;;;;;;4986064;28;20141;-70
2022/03/16 07:29:22;;;;;;;88.45;50.22;;;;;;;;;;4993789;28;20065;-70
2022/03/16 07:31:49;;;;;;;84.78;48.85;;;;;;;;;;4987173;28;20045;-70
2022/03/16 07:34:18;;;;;;;90.10;49.08;;;;;;;;;;4987118;28;20056;-70
2022/03/16 07:36:45;;;;;;;79.80;47.05;;;;;;;;;;4987000;28;20116;-70
2022/03/16 07:39:12;;;;;;;68.45;42.20;;;;;;;;;;4990196;28;20057;-70
2022/03/16 07:41:39;;;;;;;83.78;48.22;;;;;;;;;;5003380;28;20046;-70
2022/03/16 07:44:07;;;;;;;74.35;45.85;;;;;;;;;;4988518;28;20054;-70
2022/03/16 07:46:34;;;;;;;74.45;46.25;;;;;;;;;;4984813;28;20061;-70
2022/03/16 07:49:02;;;;;;;70.72;44.40;;;;;;;;;;4999168;28;20523;-70
2022/03/16 07:51:30;;;;;;;66.65;41.45;;;;;;;;;;4986956;28;20065;-70
2022/03/16 07:53:58;;;;;;;60.63;40.05;;;;;;;;;;4989359;28;20049;-70
2022/03/16 07:56:25;;;;;;;67.75;44.10;;;;;;;;;;5003200;28;20100;-71
2022/03/16 07:58:53;;;;;;;63.22;40.72;;;;;;;;;;4981942;28;20501;-71
2022/03/16 08:01:21;;;;;;;66.30;40.55;;;;;;;;;;4984847;28;20046;-71
2022/03/16 08:03:48;;;;;;;61.85;40.13;;;;;;;;;;4986688;28;20061;-71
2022/03/16 08:06:15;;;;;;;63.05;41.97;;;;;;;;;;4985938;28;20455;-71
2022/03/16 08:08:44;;;;;;;57.83;40.13;;;;;;;;;;4989490;28;20108;-71
2022/03/16 08:11:11;;;;;;;58.45;37.92;;;;;;;;;;5005616;28;20488;-71
2022/03/16 08:13:39;;;;;;;63.33;42.45;;;;;;;;;;4982939;28;20519;-71
2022/03/16 08:16:06;;;;;;;54.83;38.53;;;;;;;;;;4988027;28;20054;-71
2022/03/16 08:18:34;;;;;;;57.88;38.10;;;;;;;;;;4986656;28;20046;-71
2022/03/16 08:21:02;;;;;;;58.05;39.58;;;;;;;;;;4990620;28;20050;-71
2022/03/16 08:23:30;;;;;;;59.83;41.17;;;;;;;;;;4987924;28;20052;-71
2022/03/16 08:25:58;;;;;;;54.25;39.55;;;;;;;;;;4986034;28;20156;-71
2022/03/16 08:28:26;;;;;;;63.75;38.88;;;;;;;;;;4992869;28;20060;-71
2022/03/16 08:30:53;;;;;;;57.58;40.45;;;;;;;;;;5006640;28;20066;-71
2022/03/16 08:33:22;;;;;;;50.67;35.90;;;;;;;;;;4985148;28;20049;-71
2022/03/16 08:35:49;;;;;;;54.88;37.15;;;;;;;;;;4992188;28;20112;-71
2022/03/16 08:38:16;;;;;;;49.00;34.15;;;;;;;;;;4991018;28;20057;-71
2022/03/16 08:40:43;;;;;;;46.15;32.75;;;;;;;;;;4988669;28;20057;-71
2022/03/16 08:43:12;;;;;;;43.28;29.73;;;;;;;;;;4990959;28;20120;-71
2022/03/16 08:45:40;;;;;;;40.92;29.92;;;;;;;;;;4992658;28;20882;-71
2022/03/16 08:48:08;;;;;;;42.60;28.48;;;;;;;;;;4990483;28;20090;-71
2022/03/16 08:50:35;;;;;;;42.67;27.35;;;;;;;;;;4991422;28;20570;-71
2022/03/16 08:53:02;;;;;;;34.78;24.27;;;;;;;;;;4990048;28;20733;-71
2022/03/16 08:55:29;;;;;;;30.67;21.55;;;;;;;;;;4988668;28;20042;-71
2022/03/16 08:57:57;;;;;;;25.80;19.38;;;;;;;;;;4990489;28;20632;-71
2022/03/16 09:00:26;;;;;;;28.75;19.40;;;;;;;;;;5007584;28;20057;-71
2022/03/16 09:02:53;;;;;;;22.13;16.58;;;;;;;;;;4989154;28;20124;-71
2022/03/16 09:05:20;;;;;;;22.13;16.60;;;;;;;;;;4989972;28;20060;-71
2022/03/16 09:07:48;;;;;;;23.42;14.52;;;;;;;;;;4988157;28;20468;-71
2022/03/16 09:10:15;;;;;;;27.83;16.38;;;;;;;;;;5008269;28;20664;-71
2022/03/16 09:12:42;;;;;;;21.98;15.50;;;;;;;;;;5001693;28;20764;-71
2022/03/16 09:15:10;;;;;;;21.00;15.77;;;;;;;;;;4988748;28;20057;-71
2022/03/16 09:17:38;;;;;;;24.15;15.15;;;;;;;;;;4987465;28;20515;-71
2022/03/16 09:20:06;;;;;;;23.88;15.88;;;;;;;;;;4988534;28;20505;-71
2022/03/16 09:22:34;;;;;;;22.83;14.95;;;;;;;;;;4988511;28;20046;-71
2022/03/16 09:25:01;;;;;;;22.60;14.85;;;;;;;;;;4988099;28;20056;-71
2022/03/16 09:27:28;;;;;;;19.25;14.52;;;;;;;;;;5008258;28;20050;-71
2022/03/16 09:29:56;;;;;;;26.50;15.65;;;;;;;;;;4989670;28;20052;-71
2022/03/16 09:32:23;;;;;;;20.20;14.93;;;;;;;;;;4988347;28;20057;-71
2022/03/16 09:34:52;;;;;;;19.42;14.43;;;;;;;;;;4988454;28;20058;-71
2022/03/16 09:37:19;;;;;;;23.60;15.73;;;;;;;;;;4986750;28;20065;-71
2022/03/16 09:39:47;;;;;;;26.73;16.05;;;;;;;;;;4990649;28;20084;-71
2022/03/16 09:42:14;;;;;;;22.58;15.50;;;;;;;;;;4986724;28;20053;-71
2022/03/16 09:44:41;;;;;;;21.20;15.82;;;;;;;;;;4990350;28;20137;-71
2022/03/16 09:47:09;;;;;;;22.02;15.63;;;;;;;;;;4987560;28;20054;-71
2022/03/16 09:49:37;;;;;;;25.27;16.27;;;;;;;;;;4985185;28;20064;-71
2022/03/16 09:52:07;;;;;;;24.23;15.57;;;;;;;;;;4987957;28;20092;-71
2022/03/16 09:54:34;;;;;;;23.00;15.95;;;;;;;;;;4988592;28;20116;-71
2022/03/16 09:57:01;;;;;;;24.75;16.33;;;;;;;;;;4987172;28;20061;-71
2022/03/16 09:59:29;;;;;;;23.55;15.00;;;;;;;;;;4988663;28;20902;-71
2022/03/16 10:02:00;;;;;;;25.15;16.10;;;;;;;;;;4988003;28;20049;-71
2022/03/16 10:04:30;;;;;;;23.08;14.48;;;;;;;;;;4986543;28;20062;-71
2022/03/16 10:06:59;;;;;;;20.65;14.80;;;;;;;;;;4987775;28;20050;-71
2022/03/16 10:15:03;;;;;;;20.60;13.13;;;;;;;;;;4979036;28;20069;-71
2022/03/16 10:17:46;;;;;;;25.85;12.10;;;;;;;;;;4983432;28;20068;-71
2022/03/16 10:20:26;;;;;;;18.00;11.65;;;;;;;;;;4986036;28;20102;-71
2022/03/16 10:22:57;;;;;;;17.38;12.30;;;;;;;;;;4986500;28;20050;-71
2022/03/16 10:25:26;;;;;;;20.35;13.10;;;;;;;;;;4987296;28;20061;-71
2022/03/16 10:27:54;;;;;;;19.10;11.70;;;;;;;;;;4985286;28;20054;-71
2022/03/16 10:30:21;;;;;;;21.65;12.50;;;;;;;;;;4988330;28;20132;-71
2022/03/16 10:32:55;;;;;;;18.58;11.90;;;;;;;;;;4985158;28;20225;-71
2022/03/16 10:35:23;;;;;;;18.95;10.80;;;;;;;;;;4986406;28;20167;-71
2022/03/16 10:37:53;;;;;;;18.42;11.07;;;;;;;;;;4984869;28;20136;-71
2022/03/16 10:40:23;;;;;;;16.58;11.32;;;;;;;;;;4976315;28;20058;-71
2022/03/16 10:48:22;;;;;;;20.88;11.32;;;;;;;;;;4983303;28;20104;-71
2022/03/16 10:50:50;;;;;;;15.70;10.23;;;;;;;;;;4984848;28;20824;-71
2022/03/16 10:53:18;;;;;;;18.40;10.15;;;;;;;;;;4983845;28;20167;-71
2022/03/16 10:55:46;;;;;;;17.50;10.15;;;;;;;;;;4982795;28;20467;-71
2022/03/16 10:58:16;;;;;;;13.68;9.68;;;;;;;;;;4983143;28;20057;-71
2022/03/16 11:00:43;;;;;;;14.27;9.60;;;;;;;;;;4982477;28;20050;-71
2022/03/16 11:03:15;;;;;;;15.85;8.70;;;;;;;;;;4984876;28;20058;-71
2022/03/16 11:05:42;;;;;;;15.23;8.93;;;;;;;;;;4987567;28;20041;-71
2022/03/16 11:08:11;;;;;;;14.43;9.10;;;;;;;;;;4988634;28;20496;-71
2022/03/16 11:10:38;;;;;;;13.18;9.02;;;;;;;;;;4989244;28;20057;-71
2022/03/16 11:15:53;;;;;;;14.65;10.10;;;;;;;;;;4985589;28;20404;-71
2022/03/16 11:18:21;;;;;;;13.68;10.13;;;;;;;;;;4988472;28;20069;-71
2022/03/16 11:20:49;;;;;;;13.35;8.98;;;;;;;;;;4986253;28;20064;-71
2022/03/16 11:26:11;;;;;;;15.23;10.18;;;;;;;;;;4985113;28;20092;-71
2022/03/16 11:28:42;;;;;;;16.50;10.00;;;;;;;;;;4988606;28;20052;-71
2022/03/16 11:31:13;;;;;;;15.13;9.90;;;;;;;;;;4988516;28;20459;-71
2022/03/16 11:33:50;;;;;;;15.40;9.30;;;;;;;;;;5002697;28;20588;-71
2022/03/16 11:36:31;;;;;;;14.95;9.85;;;;;;;;;;4994325;28;20108;-71
2022/03/16 11:38:59;;;;;;;12.73;8.80;;;;;;;;;;4985604;28;20424;-71
2022/03/16 11:41:27;;;;;;;15.13;8.88;;;;;;;;;;4988026;28;20509;-71
2022/03/16 11:44:03;;;;;;;13.73;9.32;;;;;;;;;;4988317;28;20789;-71
2022/03/16 11:46:32;;;;;;;14.70;8.55;;;;;;;;;;4984601;28;20053;-71
2022/03/16 11:49:04;;;;;;;15.07;8.25;;;;;;;;;;4988717;28;20089;-71
2022/03/16 11:51:32;;;;;;;10.07;7.43;;;;;;;;;;4987773;28;20507;-71
2022/03/16 11:54:10;;;;;;;10.35;7.38;;;;;;;;;;4991212;28;20539;-71
2022/03/16 11:56:47;;;;;;;11.68;7.20;;;;;;;;;;4991450;28;20495;-71
2022/03/16 11:59:31;;;;;;;15.40;7.13;;;;;;;;;;4989310;28;20046;-71
2022/03/16 12:02:07;;;;;;;10.52;6.70;;;;;;;;;;4985692;28;20050;-71
2022/03/16 12:04:38;;;;;;;10.02;7.38;;;;;;;;;;4995634;28;20137;-71
2022/03/16 12:07:06;;;;;;;11.57;7.00;;;;;;;;;;4991845;28;20156;-71
2022/03/16 12:09:37;;;;;;;10.82;7.97;;;;;;;;;;4993591;28;20136;-71
2022/03/16 12:15:00;;;;;;;12.68;7.75;;;;;;;;;;4982820;28;20077;-71
2022/03/16 12:17:28;;;;;;;12.18;7.45;;;;;;;;;;4995661;28;20054;-71
2022/03/16 12:20:10;;;;;;;11.57;7.65;;;;;;;;;;4991861;28;20062;-71
2022/03/16 12:22:38;;;;;;;12.55;8.02;;;;;;;;;;4990835;28;20713;-71
2022/03/16 12:25:21;;;;;;;10.23;7.90;;;;;;;;;;4990589;28;20141;-71
2022/03/16 12:30:38;;;;;;;10.27;7.93;;;;;;;;;;4990250;28;20050;-71
2022/03/16 12:33:07;;;;;;;11.48;8.70;;;;;;;;;;4985401;28;20049;-71
2022/03/16 12:35:34;;;;;;;13.43;7.25;;;;;;;;;;4992234;28;20061;-71
2022/03/16 12:38:02;;;;;;;10.75;7.20;;;;;;;;;;4990194;28;20054;-71
2022/03/16 12:40:30;;;;;;;9.15;6.97;;;;;;;;;;4990293;28;20112;-71
2022/03/16 12:42:56;;;;;;;8.90;6.47;;;;;;;;;;4991670;28;20445;-71
2022/03/16 12:45:25;;;;;;;9.43;6.57;;;;;;;;;;5006993;28;20056;-71
2022/03/16 12:48:03;;;;;;;9.48;6.88;;;;;;;;;;4987771;28;20049;-71
2022/03/16 12:50:32;;;;;;;10.90;7.20;;;;;;;;;;4985300;28;20057;-71
2022/03/16 12:53:01;;;;;;;10.60;6.82;;;;;;;;;;5005659;28;20064;-71
2022/03/16 12:55:28;;;;;;;8.55;6.28;;;;;;;;;;5004749;28;20054;-71
2022/03/16 12:57:56;;;;;;;10.30;7.00;;;;;;;;;;4985622;28;20056;-71
2022/03/16 13:00:23;;;;;;;12.15;6.80;;;;;;;;;;4990633;28;20077;-71
2022/03/16 13:02:50;;;;;;;10.32;6.65;;;;;;;;;;5010622;28;20060;-71
2022/03/16 13:05:20;;;;;;;7.55;6.22;;;;;;;;;;4984822;28;20057;-71
2022/03/16 13:07:49;;;;;;;9.75;6.43;;;;;;;;;;4986181;28;20056;-71
2022/03/16 13:10:16;;;;;;;13.00;7.00;;;;;;;;;;4991470;28;20136;-71
2022/03/16 13:12:56;;;;;;;10.32;6.80;;;;;;;;;;5010433;28;20057;-71
2022/03/16 13:15:26;;;;;;;10.82;7.82;;;;;;;;;;4985870;28;20188;-71
2022/03/16 13:17:57;;;;;;;10.85;8.13;;;;;;;;;;4989272;28;20081;-71
2022/03/16 13:20:25;;;;;;;11.35;8.13;;;;;;;;;;4983250;28;20088;-71
2022/03/16 13:23:03;;;;;;;11.35;7.97;;;;;;;;;;4996655;28;20450;-71
2022/03/16 13:25:30;;;;;;;13.27;8.77;;;;;;;;;;4985882;28;20492;-71
2022/03/16 13:27:57;;;;;;;11.48;8.60;;;;;;;;;;4984527;28;20057;-71
2022/03/16 13:30:24;;;;;;;11.43;8.45;;;;;;;;;;4987226;28;20057;-71
2022/03/16 13:32:53;;;;;;;11.55;9.10;;;;;;;;;;4983738;28;20120;-71
2022/03/16 13:35:22;;;;;;;11.75;8.90;;;;;;;;;;4985930;28;20050;-71
2022/03/16 13:37:50;;;;;;;12.75;8.80;;;;;;;;;;4988440;28;20541;-71
2022/03/16 13:40:25;;;;;;;12.63;8.75;;;;;;;;;;4989102;28;20057;-71
2022/03/16 13:43:01;;;;;;;13.63;9.02;;;;;;;;;;4986236;28;20050;-71
2022/03/16 13:45:30;;;;;;;13.18;8.65;;;;;;;;;;4982548;28;20058;-71
2022/03/16 13:48:07;;;;;;;14.00;9.00;;;;;;;;;;4982078;28;20057;-71
2022/03/16 13:50:35;;;;;;;18.70;9.93;;;;;;;;;;4986876;28;20050;-71
2022/03/16 13:53:12;;;;;;;13.32;9.77;;;;;;;;;;4982819;28;20170;-71
2022/03/16 13:55:41;;;;;;;12.32;9.70;;;;;;;;;;4988167;28;20539;-71
2022/03/16 13:58:12;;;;;;;14.23;10.05;;;;;;;;;;5003064;28;20065;-71
2022/03/16 14:00:44;;;;;;;14.55;10.02;;;;;;;;;;4983428;28;20062;-71
2022/03/16 14:03:12;;;;;;;12.98;10.27;;;;;;;;;;4986426;28;20041;-71
2022/03/16 14:05:40;;;;;;;14.68;10.13;;;;;;;;;;4986853;28;20516;-71
2022/03/16 14:08:09;;;;;;;12.18;9.93;;;;;;;;;;4988673;28;20054;-71
2022/03/16 14:10:36;;;;;;;15.63;10.55;;;;;;;;;;4988709;28;20409;-71
2022/03/16 14:13:06;;;;;;;15.93;10.82;;;;;;;;;;4984873;28;20054;-71
2022/03/16 14:15:33;;;;;;;16.40;10.65;;;;;;;;;;4980933;28;20057;-71
2022/03/16 14:18:08;;;;;;;14.95;11.63;;;;;;;;;;4982436;28;20061;-71
2022/03/16 14:20:37;;;;;;;14.55;11.43;;;;;;;;;;4990627;28;20061;-71
2022/03/16 14:23:07;;;;;;;15.68;11.00;;;;;;;;;;4993609;28;20408;-71
2022/03/16 14:25:37;;;;;;;14.82;11.63;;;;;;;;;;4988475;28;20065;-71
2022/03/16 14:28:06;;;;;;;23.00;12.23;;;;;;;;;;4984746;28;20049;-71
2022/03/16 14:30:34;;;;;;;17.27;11.70;;;;;;;;;;4985620;28;20127;-71
2022/03/16 14:33:03;;;;;;;18.48;12.05;;;;;;;;;;4987253;28;20049;-71
2022/03/16 14:35:31;;;;;;;19.75;12.48;;;;;;;;;;4988160;28;20054;-71
2022/03/16 14:38:00;;;;;;;18.02;11.82;;;;;;;;;;5010513;28;20400;-71
2022/03/16 14:40:27;;;;;;;17.15;11.57;;;;;;;;;;5011783;28;20051;-71
2022/03/16 14:42:56;;;;;;;14.43;10.90;;;;;;;;;;4986069;28;20053;-71
2022/03/16 14:45:25;;;;;;;17.15;11.50;;;;;;;;;;4987534;28;20057;-71
2022/03/16 14:47:52;;;;;;;14.95;10.15;;;;;;;;;;4989719;28;20053;-71